createdAt,value
2022-11-30T00:01:23.325Z,5.13
2022-11-30T00:06:47.318Z,5.11
2022-11-30T00:12:12.341Z,5.04
2022-11-30T00:17:39.378Z,5.08
2022-11-30T00:23:05.342Z,5.04
2022-11-30T00:28:29.332Z,5.05
2022-11-30T00:33:57.534Z,5.06
2022-11-30T00:39:21.361Z,5.06
2022-11-30T00:44:46.479Z,5.06
2022-11-30T00:50:13.360Z,5.08
2022-11-30T00:55:39.368Z,5.08
2022-11-30T01:01:03.416Z,5.06
2022-11-30T01:06:31.357Z,5.07
2022-11-30T01:11:56.346Z,5.07
2022-11-30T01:17:21.361Z,5.07
2022-11-30T01:22:55.390Z,5.07
2022-11-30T01:28:20.414Z,5.05
2022-11-30T01:33:44.389Z,5.03
2022-11-30T01:39:12.383Z,5.02
2022-11-30T01:45:07.408Z,5.01
2022-11-30T01:50:37.352Z,5.01
2022-11-30T01:56:05.371Z,5.01
2022-11-30T02:01:30.419Z,5.00
2022-11-30T02:06:55.403Z,4.99
2022-11-30T02:12:37.400Z,4.99
2022-11-30T02:18:09.390Z,5.00
2022-11-30T02:23:46.474Z,4.95
2022-11-30T02:29:23.382Z,4.94
2022-11-30T02:34:51.443Z,4.94
2022-11-30T02:40:15.444Z,4.94
2022-11-30T02:45:47.429Z,4.94
2022-11-30T02:51:16.415Z,4.93
2022-11-30T02:56:42.427Z,4.91
2022-11-30T03:02:10.423Z,4.89
2022-11-30T03:07:35.473Z,4.82
2022-11-30T03:12:59.400Z,4.80
2022-11-30T03:18:27.414Z,4.77
2022-11-30T03:23:51.424Z,4.78
2022-11-30T03:29:16.425Z,4.76
2022-11-30T03:34:43.442Z,4.76
2022-11-30T03:40:08.418Z,4.77
2022-11-30T03:45:32.438Z,4.76
2022-11-30T03:51:00.448Z,4.76
2022-11-30T03:56:26.473Z,4.76
2022-11-30T04:01:51.492Z,4.74
2022-11-30T04:07:18.471Z,4.75
2022-11-30T04:12:44.547Z,4.74
2022-11-30T04:18:08.439Z,4.73
2022-11-30T04:23:40.614Z,4.73
2022-11-30T04:29:04.864Z,4.73
2022-11-30T04:34:29.543Z,4.70
2022-11-30T04:39:56.436Z,4.68
2022-11-30T04:45:21.533Z,4.66
2022-11-30T04:50:46.450Z,4.63
2022-11-30T04:56:18.474Z,4.61
2022-11-30T05:01:42.509Z,4.59
2022-11-30T05:07:07.568Z,4.56
2022-11-30T05:12:34.500Z,4.55
2022-11-30T05:17:59.449Z,4.53
2022-11-30T05:23:30.458Z,4.51
2022-11-30T05:28:58.509Z,4.44
2022-11-30T05:34:22.484Z,4.35
2022-11-30T05:39:47.493Z,4.25
2022-11-30T05:45:14.457Z,4.24
2022-11-30T05:50:39.671Z,4.17
2022-11-30T05:56:03.497Z,4.19
2022-11-30T06:01:33.546Z,4.17
2022-11-30T06:07:02.492Z,4.15
2022-11-30T06:12:27.495Z,4.13
2022-11-30T06:17:54.498Z,4.11
2022-11-30T06:23:25.484Z,4.11
2022-11-30T06:28:50.489Z,4.09
2022-11-30T06:34:18.517Z,4.07
2022-11-30T06:40:05.465Z,4.08
2022-11-30T06:45:28.556Z,4.06
2022-11-30T06:50:56.517Z,4.03
2022-11-30T06:56:21.499Z,4.03
2022-11-30T07:01:46.653Z,4.03
2022-11-30T07:07:14.535Z,3.99
2022-11-30T07:12:39.524Z,3.95
2022-11-30T07:18:03.524Z,3.90
2022-11-30T07:23:55.895Z,3.91
2022-11-30T07:29:21.524Z,3.91
2022-11-30T07:34:45.810Z,3.96
2022-11-30T07:40:13.574Z,4.03
2022-11-30T07:45:37.617Z,4.13
2022-11-30T07:51:02.559Z,4.20
2022-11-30T07:56:30.539Z,4.28
2022-11-30T08:01:55.621Z,4.32
2022-11-30T08:07:19.595Z,4.33
2022-11-30T08:12:47.535Z,4.34
2022-11-30T08:18:13.802Z,4.38
2022-11-30T08:23:45.578Z,4.43
2022-11-30T08:29:13.582Z,4.44
2022-11-30T08:34:37.547Z,4.48
2022-11-30T08:40:02.552Z,4.52
2022-11-30T08:45:30.692Z,4.56
2022-11-30T08:50:55.559Z,4.61
2022-11-30T08:56:23.584Z,4.66
2022-11-30T09:01:51.560Z,4.69
2022-11-30T09:07:16.562Z,4.74
2022-11-30T09:12:44.550Z,4.78
2022-11-30T09:18:11.556Z,4.85
2022-11-30T09:23:43.677Z,4.91
2022-11-30T09:29:09.587Z,4.96
2022-11-30T09:34:36.684Z,5.01
2022-11-30T09:40:01.648Z,5.07
2022-11-30T09:45:34.564Z,5.11
2022-11-30T09:51:04.574Z,5.16
2022-11-30T09:56:36.604Z,5.19
2022-11-30T10:02:01.645Z,5.23
2022-11-30T10:07:53.712Z,5.26
2022-11-30T10:13:25.690Z,5.27
2022-11-30T10:19:02.671Z,5.37
2022-11-30T10:24:41.587Z,5.43
2022-11-30T10:30:06.670Z,5.49
2022-11-30T10:35:41.706Z,5.53
2022-11-30T10:41:16.661Z,5.59
2022-11-30T10:46:47.674Z,5.63
2022-11-30T10:52:15.621Z,5.65
2022-11-30T10:57:44.630Z,5.72
2022-11-30T11:03:08.638Z,5.76
2022-11-30T11:08:35.636Z,5.80
2022-11-30T11:14:02.618Z,5.80
2022-11-30T11:19:43.620Z,5.82
2022-11-30T11:25:11.648Z,5.90
2022-11-30T11:30:42.702Z,5.92
2022-11-30T11:36:08.641Z,5.94
2022-11-30T11:41:35.625Z,5.97
2022-11-30T11:47:14.625Z,5.95
2022-11-30T11:52:39.693Z,5.93
2022-11-30T11:58:11.704Z,5.98
2022-11-30T12:03:44.640Z,5.88
2022-11-30T12:09:14.650Z,6.02
2022-11-30T12:14:41.638Z,6.09
2022-11-30T12:20:22.655Z,6.12
2022-11-30T12:25:58.679Z,6.17
2022-11-30T12:31:28.681Z,6.28
2022-11-30T12:37:05.686Z,6.32
2022-11-30T12:42:37.660Z,6.39
2022-11-30T12:48:11.731Z,6.41
2022-11-30T12:53:43.653Z,6.46
2022-11-30T12:59:15.673Z,6.40
2022-11-30T13:04:45.105Z,6.52
2022-11-30T13:10:17.710Z,6.53
2022-11-30T13:15:43.834Z,6.53
2022-11-30T13:21:14.668Z,6.51
2022-11-30T13:26:46.683Z,6.47
2022-11-30T13:32:55.492Z,6.43
2022-11-30T13:44:03.684Z,6.32
2022-11-30T13:49:37.765Z,6.28
2022-11-30T13:55:04.722Z,6.24
2022-11-30T14:01:02.922Z,6.18
2022-11-30T14:06:56.678Z,6.13
2022-11-30T14:12:50.706Z,6.11
2022-11-30T14:18:25.748Z,6.08
2022-11-30T14:24:05.711Z,6.05
2022-11-30T14:29:35.723Z,6.00
2022-11-30T14:35:06.708Z,6.00
2022-11-30T14:40:34.733Z,5.97
2022-11-30T14:46:15.900Z,5.94
2022-11-30T14:51:43.766Z,5.89
2022-11-30T14:57:15.739Z,5.86
2022-11-30T15:02:45.733Z,5.81
2022-11-30T15:08:12.735Z,5.79
2022-11-30T15:13:37.860Z,5.76
2022-11-30T15:19:02.756Z,5.72
2022-11-30T15:24:37.732Z,5.69
2022-11-30T15:30:08.717Z,5.64
2022-11-30T15:36:12.159Z,5.60
2022-11-30T15:41:29.795Z,5.53
2022-11-30T15:46:55.753Z,5.47
2022-11-30T15:52:26.894Z,5.33
2022-11-30T15:58:14.755Z,5.23
2022-11-30T16:03:39.729Z,5.16
2022-11-30T16:09:05.734Z,5.14
2022-11-30T16:14:33.771Z,5.11
2022-11-30T16:20:04.792Z,5.07
2022-11-30T16:25:33.788Z,5.04
2022-11-30T16:31:01.796Z,5.00
2022-11-30T16:36:28.856Z,5.00
2022-11-30T16:41:52.812Z,4.98
2022-11-30T16:47:20.760Z,4.96
2022-11-30T16:52:45.774Z,4.94
2022-11-30T16:58:11.791Z,4.93
2022-11-30T17:03:43.845Z,4.91
2022-11-30T17:09:08.753Z,4.90
2022-11-30T17:14:35.767Z,4.91
2022-11-30T17:19:56.780Z,4.91
2022-11-30T17:25:30.793Z,4.88
2022-11-30T17:30:55.850Z,4.89
2022-11-30T17:36:27.786Z,4.86
2022-11-30T17:41:52.843Z,4.86
2022-11-30T17:47:16.818Z,4.86
2022-11-30T17:52:44.809Z,4.81
2022-11-30T17:58:08.853Z,4.70
2022-11-30T18:03:33.825Z,4.68
2022-11-30T18:09:01.905Z,4.63
2022-11-30T18:14:26.840Z,4.58
2022-11-30T18:19:51.793Z,4.48
2022-11-30T18:25:21.805Z,4.44
2022-11-30T18:30:45.905Z,4.39
2022-11-30T18:36:12.950Z,4.37
2022-11-30T18:41:40.846Z,4.32
2022-11-30T18:47:05.840Z,4.28
2022-11-30T18:52:29.872Z,4.25
2022-11-30T18:57:57.837Z,4.25
2022-11-30T19:03:21.822Z,4.23
2022-11-30T19:08:48.858Z,4.20
2022-11-30T19:14:16.850Z,4.20
2022-11-30T19:19:41.871Z,4.19
2022-11-30T19:25:16.472Z,4.18
2022-11-30T19:30:47.891Z,4.18
2022-11-30T19:36:15.867Z,4.16
2022-11-30T19:41:40.975Z,4.14
2022-11-30T19:47:07.880Z,4.11
2022-11-30T19:52:32.843Z,4.04
2022-11-30T19:57:56.864Z,4.01
2022-11-30T20:03:30.866Z,3.98
2022-11-30T20:08:55.862Z,3.93
2022-11-30T20:14:21.000Z,3.88
2022-11-30T20:19:48.875Z,3.80
2022-11-30T20:25:21.873Z,3.71
2022-11-30T20:30:47.045Z,3.65
2022-11-30T20:36:16.866Z,3.58
2022-11-30T20:41:42.964Z,3.50
2022-11-30T20:47:06.874Z,3.42
2022-11-30T20:52:34.867Z,3.32
2022-11-30T20:57:58.917Z,3.31
2022-11-30T21:03:23.933Z,3.31
2022-11-30T21:08:53.888Z,3.30
2022-11-30T21:14:19.882Z,3.30
2022-11-30T21:19:43.895Z,3.31
2022-11-30T21:25:18.975Z,3.30
2022-11-30T21:30:43.955Z,3.30
2022-11-30T21:36:07.877Z,3.25
2022-11-30T21:41:35.966Z,3.17
2022-11-30T21:47:01.904Z,3.13
2022-11-30T21:52:26.894Z,3.13
2022-11-30T21:57:53.902Z,3.12
2022-11-30T22:03:19.756Z,3.11
2022-11-30T22:08:44.989Z,3.05
2022-11-30T22:14:12.903Z,3.04
2022-11-30T22:19:36.895Z,3.00
2022-11-30T22:25:07.938Z,2.97
2022-11-30T22:30:35.992Z,2.92
2022-11-30T22:35:59.941Z,2.89
2022-11-30T22:41:26.955Z,2.84
2022-11-30T22:46:54.031Z,2.81
2022-11-30T22:52:22.218Z,2.73
2022-11-30T22:57:51.939Z,2.68
2022-11-30T23:03:20.084Z,2.67
2022-11-30T23:08:44.928Z,2.62
2022-11-30T23:14:13.125Z,2.60
2022-11-30T23:19:39.941Z,2.57
2022-11-30T23:25:10.945Z,2.51
2022-11-30T23:30:35.935Z,2.50
2022-11-30T23:36:02.957Z,2.45
2022-11-30T23:41:27.946Z,2.46
2022-11-30T23:46:54.050Z,2.44
2022-11-30T23:52:21.943Z,2.41
2022-11-30T23:57:45.946Z,2.41
